King City, Canada
Current Conditions -  °F | °C
As of 6:00 PM on Wednesday 17 Dec 2014 (Local Time) from CYKZ Reporting Station
Snow Showers Snow Showers  
Wind Chill: 27°   Ceiling: 1200
Heat Index: 34°   Visibility: 7mi
Dew Point: 32°   Wind: 8mph
Humidity: 93%   Direction: 260°W
Pressure: 29.9"   Gusts: NA
Location:  43.93°N, 79.53°W
Report Text: CYKZ 172300Z 26007KT 7SM -SHRASN FEW007 BKN012TCU BKN085 01/00 A2990 RMK CF2TCU3ACC2 CIG VRB 9-15 SLP132
Loading
Personal Weather Stations






























Interactive Weather Map New forecast layout! Learn more

10-Day Weather Forecast

Advertisements
Track Severe Weather on mobile